METAR Data
IDs: Format: Raw Decoded Include TAF

Data at: 1342 UTC 14 Dec 2019

METAR for:KEST (Estherville Muni, IA, US)
Text:KEST 141330Z AUTO 32015KT 10SM BKN023 OVC033 M12/M14 A2993 RMK AO2 T11171139
Temperature:-11.7°C ( 11°F)
Dewpoint:-13.9°C ( 7°F) [RH = 84%]
Pressure (altimeter):29.93 inches Hg (1013.6 mb)
Winds:from the NW (320 degrees) at 17 MPH (15 knots; 7.7 m/s)
Visibility:10 or more sm (16+ km)
Ceiling:2300 feet AGL
Clouds: broken clouds at 2300 feet AGL, overcast cloud deck at 3300 feet AGL
QC Flag:automated observation with no human augmentation